Delavan, WI

2:35 PM CDT on August 28, 2016 (GMT -0500)
KWITWINL3 | | Change Station

Elev 863 ft 42.51 °N, 88.23 °W | Updated 368 days ago

Partly Cloudy
Partly Cloudy
84 °F
Feels Like 87 °F
N
6
Wind Variable Wind from ESE
Gusts mph

Today
High -- | Low -- °F
--% Chance of Precip.
Yesterday
High -- | Low -- °F
Precip. -- in
Pressure 30.19 in
Visibility 10.0 miles
Clouds Clear
Heat Index 87 °F
Dew Point 68 °F
Humidity 59%
Rainfall in
Snow Depth Not available.
6:15 AM 7:34 PM
Waning Crescent, 14% visible
METAR KBUU 281915Z AUTO 11006KT 10SM CLR 26/20 A3019 RMK AO2 T02570199
Pressure 30.19 in
Visibility 10.0 miles
Clouds Clear
Heat Index 87 °F
Dew Point 68 °F
Humidity 59%
Rainfall in
Snow Depth Not available.
6:15 AM 7:34 PM
Waning Crescent, 14% visible
METAR KBUU 281915Z AUTO 11006KT 10SM CLR 26/20 A3019 RMK AO2 T02570199

10-Day Weather Forecast

Almanac

Astronomy

Aug. 28, 2016 Rise Set
Actual Time
Civil Twilight
Nautical Twilight
Astronomical Twilight
Moon
Length of Visible Light
Length of Day
Tomorrow will be .
, % of the Moon is Illuminated

Today's Extremes

State Highs State Lows

Community

WunderPhotos

Upload Photos

1,935,658 photos uploaded!

WunderBlog® & News

Nearby

Air Quality

  Air Quality AQ Index Pollutant
Not available.

Snow Depth

Station Depth Elevation

Earthquake Activity

City Distance Mag. Time & Date
Minimum magnitude displayed is 2.5.

Coastal Water Temperatures

Place Temperature

Stations

Nearby Weather Stations

Station Location Temp. Windchill Dew Point Humidity Wind Precip. Elev Updated Type
                   

Watches & Warnings

There are currently no watches in effect.